createdAt,value
2017-01-15T00:00:19.654Z,0.03
2017-01-15T00:01:00.306Z,0.04
2017-01-15T00:01:40.952Z,0
2017-01-15T00:02:21.512Z,0.01
2017-01-15T00:03:02.176Z,0.04
2017-01-15T00:03:42.892Z,0.04
2017-01-15T00:04:23.461Z,0.08
2017-01-15T00:05:04.011Z,0.01
2017-01-15T00:05:44.665Z,0.08
2017-01-15T00:06:25.343Z,0.08
2017-01-15T00:07:05.999Z,0.08
2017-01-15T00:07:46.650Z,0.05
2017-01-15T00:08:27.229Z,0.08
2017-01-15T00:09:07.841Z,0.04
2017-01-15T00:09:48.487Z,0.01
2017-01-15T00:10:29.167Z,0
2017-01-15T00:11:09.801Z,0
2017-01-15T00:11:50.456Z,0.01
2017-01-15T00:12:31.106Z,0.08
2017-01-15T00:13:11.771Z,0.03
2017-01-15T00:13:52.399Z,0.07
2017-01-15T00:14:33.048Z,0.11
2017-01-15T00:15:13.702Z,0.04
2017-01-15T00:15:54.359Z,0.1
2017-01-15T00:16:35.011Z,0.05
2017-01-15T00:17:15.663Z,0.05
2017-01-15T00:17:56.341Z,0.08
2017-01-15T00:18:36.996Z,0.01
2017-01-15T00:19:17.648Z,0.05
2017-01-15T00:19:58.270Z,-0.02
2017-01-15T00:20:40.905Z,-0.14
2017-01-15T00:21:21.523Z,-0.15
2017-01-15T00:22:02.178Z,-0.13
2017-01-15T00:22:43.778Z,-0.1
2017-01-15T00:23:25.341Z,-0.1
2017-01-15T00:24:06.902Z,-0.1
2017-01-15T00:24:47.567Z,-0.15
2017-01-15T00:25:28.207Z,-0.13
2017-01-15T00:26:08.858Z,-0.14
2017-01-15T00:26:49.539Z,-0.25
2017-01-15T00:27:31.217Z,-0.2
2017-01-15T00:28:11.840Z,-0.25
2017-01-15T00:28:52.497Z,-0.21
2017-01-15T00:29:33.175Z,-0.25
2017-01-15T00:30:14.829Z,-0.26
2017-01-15T00:30:55.503Z,-0.28
2017-01-15T00:31:36.156Z,-0.26
2017-01-15T00:32:17.844Z,-0.29
2017-01-15T00:32:58.459Z,-0.35
2017-01-15T00:33:39.128Z,-0.36
2017-01-15T00:34:19.773Z,-0.35
2017-01-15T00:35:00.451Z,-0.31
2017-01-15T00:35:41.132Z,-0.31
2017-01-15T00:36:21.702Z,-0.38
2017-01-15T00:37:02.273Z,-0.29
2017-01-15T00:37:42.891Z,-0.28
2017-01-15T00:38:23.481Z,-0.31
2017-01-15T00:39:04.053Z,-0.31
2017-01-15T00:39:45.705Z,-0.35
2017-01-15T00:40:26.321Z,-0.34
2017-01-15T00:41:06.920Z,-0.31
2017-01-15T00:41:47.593Z,-0.32
2017-01-15T00:42:28.238Z,-0.31
2017-01-15T00:43:08.888Z,-0.38
2017-01-15T00:43:49.548Z,-0.36
2017-01-15T00:44:30.195Z,-0.39
2017-01-15T00:45:10.857Z,-0.34
2017-01-15T00:45:51.453Z,-0.46
2017-01-15T00:46:32.035Z,-0.41
2017-01-15T00:47:12.605Z,-0.41
2017-01-15T00:47:53.254Z,-0.47
2017-01-15T00:48:33.842Z,-0.44
2017-01-15T00:49:14.438Z,-0.39
2017-01-15T00:49:54.983Z,-0.41
2017-01-15T00:50:35.650Z,-0.53
2017-01-15T00:51:21.022Z,-0.49
2017-01-15T00:52:01.693Z,-0.53
2017-01-15T00:52:43.364Z,-0.52
2017-01-15T00:53:25.029Z,-0.5
2017-01-15T00:54:05.688Z,-0.46
2017-01-15T00:54:46.356Z,-0.52
2017-01-15T00:55:26.988Z,-0.39
2017-01-15T00:56:07.650Z,-0.53
2017-01-15T00:56:48.299Z,-0.57
2017-01-15T00:57:28.982Z,-0.56
2017-01-15T00:58:09.612Z,-0.54
2017-01-15T00:58:50.253Z,-0.53
2017-01-15T00:59:30.908Z,-0.56
2017-01-15T01:00:11.566Z,-0.59
2017-01-15T01:00:52.246Z,-0.56
2017-01-15T01:01:32.869Z,-0.54
2017-01-15T01:02:14.546Z,-0.56
2017-01-15T01:02:56.209Z,-0.59
2017-01-15T01:03:38.831Z,-0.61
2017-01-15T01:04:20.452Z,-0.56
2017-01-15T01:05:02.125Z,-0.62
2017-01-15T01:05:42.708Z,-0.62
2017-01-15T01:06:23.265Z,-0.54
2017-01-15T01:07:03.929Z,-0.57
2017-01-15T01:07:45.548Z,-0.65
2017-01-15T01:08:26.241Z,-0.53
2017-01-15T01:09:06.791Z,-0.57
2017-01-15T01:09:47.481Z,-0.62
2017-01-15T01:10:30.098Z,-0.62
2017-01-15T01:11:10.698Z,-0.61
2017-01-15T01:11:51.252Z,-0.61
2017-01-15T01:12:33.852Z,-0.59
2017-01-15T01:13:15.468Z,-0.61
2017-01-15T01:13:56.068Z,-0.61
2017-01-15T01:14:36.636Z,-0.59
2017-01-15T01:15:17.284Z,-0.54
2017-01-15T01:15:57.929Z,-0.56
2017-01-15T01:16:38.590Z,-0.53
2017-01-15T01:17:19.283Z,-0.47
2017-01-15T01:17:59.893Z,-0.57
2017-01-15T01:18:40.547Z,-0.59
2017-01-15T01:19:21.203Z,-0.54
2017-01-15T01:20:02.878Z,-0.57
2017-01-15T01:20:43.537Z,-0.57
2017-01-15T01:21:24.181Z,-0.61
2017-01-15T01:22:04.860Z,-0.43
2017-01-15T01:22:45.492Z,-0.56
2017-01-15T01:23:26.149Z,-0.53
2017-01-15T01:24:06.818Z,-0.49
2017-01-15T01:24:47.462Z,-0.54
2017-01-15T01:25:28.100Z,-0.52
2017-01-15T01:26:09.674Z,-0.54
2017-01-15T01:26:50.289Z,-0.46
2017-01-15T01:27:35.502Z,-0.47
2017-01-15T01:28:17.177Z,-0.39
2017-01-15T01:28:57.818Z,-0.47
2017-01-15T01:29:39.396Z,-0.38
2017-01-15T01:30:20.967Z,-0.29
2017-01-15T01:31:01.617Z,-0.36
2017-01-15T01:31:42.170Z,-0.38
2017-01-15T01:32:22.822Z,-0.32
2017-01-15T01:33:03.378Z,-0.28
2017-01-15T01:33:43.927Z,-0.2
2017-01-15T01:34:24.579Z,-0.21
2017-01-15T01:35:05.227Z,-0.21
2017-01-15T01:35:45.775Z,-0.31
2017-01-15T01:36:26.429Z,-0.28
2017-01-15T01:37:07.035Z,-0.29
2017-01-15T01:37:47.736Z,-0.31
2017-01-15T01:38:28.299Z,-0.26
2017-01-15T01:39:08.996Z,-0.28
2017-01-15T01:39:49.650Z,-0.21
2017-01-15T01:40:31.267Z,-0.28
2017-01-15T01:41:11.920Z,-0.25
2017-01-15T01:41:52.582Z,-0.26
2017-01-15T01:42:33.224Z,-0.28
2017-01-15T01:43:13.878Z,-0.2
2017-01-15T01:43:55.452Z,-0.25
2017-01-15T01:44:36.106Z,-0.21
2017-01-15T01:45:16.756Z,-0.23
2017-01-15T01:45:57.323Z,-0.25
2017-01-15T01:46:37.994Z,-0.26
2017-01-15T01:47:18.629Z,-0.23
2017-01-15T01:47:59.282Z,-0.26
2017-01-15T01:48:39.923Z,-0.31
2017-01-15T01:49:20.577Z,-0.31
2017-01-15T01:50:01.248Z,-0.25
2017-01-15T01:50:41.878Z,-0.26
2017-01-15T01:51:23.461Z,-0.29
2017-01-15T01:52:04.109Z,-0.38
2017-01-15T01:52:44.759Z,-0.35
2017-01-15T01:53:25.329Z,-0.31
2017-01-15T01:54:05.963Z,-0.36
2017-01-15T01:54:46.514Z,-0.39
2017-01-15T01:55:28.087Z,-0.31
2017-01-15T01:56:08.697Z,-0.32
2017-01-15T01:56:50.327Z,-0.31
2017-01-15T01:57:30.923Z,-0.29
2017-01-15T01:58:11.556Z,-0.35
2017-01-15T01:58:52.232Z,-0.36
2017-01-15T01:59:32.824Z,-0.38
2017-01-15T02:00:13.374Z,-0.34
2017-01-15T02:00:54.066Z,-0.29
2017-01-15T02:01:35.730Z,-0.29
2017-01-15T02:02:16.357Z,-0.36
2017-01-15T02:02:57.012Z,-0.35
2017-01-15T02:03:37.664Z,-0.34
2017-01-15T02:04:18.316Z,-0.35
2017-01-15T02:04:59.920Z,-0.32
2017-01-15T02:05:40.566Z,-0.31
2017-01-15T02:06:22.221Z,-0.34
2017-01-15T02:07:03.808Z,-0.28
2017-01-15T02:07:44.451Z,-0.36
2017-01-15T02:08:25.104Z,-0.29
2017-01-15T02:09:06.694Z,-0.35
2017-01-15T02:09:47.330Z,-0.31
2017-01-15T02:10:28.000Z,-0.38
2017-01-15T02:11:08.633Z,-0.29
2017-01-15T02:11:49.191Z,-0.32
2017-01-15T02:12:29.845Z,-0.38
2017-01-15T02:13:10.491Z,-0.29
2017-01-15T02:13:51.041Z,-0.25
2017-01-15T02:14:31.702Z,-0.28
2017-01-15T02:15:12.268Z,-0.25
2017-01-15T02:15:52.921Z,-0.32
2017-01-15T02:16:33.534Z,-0.29
2017-01-15T02:17:15.129Z,-0.39
2017-01-15T02:17:55.678Z,-0.38
2017-01-15T02:18:36.364Z,-0.38
2017-01-15T02:19:17.040Z,-0.38
2017-01-15T02:19:57.634Z,-0.38
2017-01-15T02:20:38.286Z,-0.35
2017-01-15T02:21:18.992Z,-0.38
2017-01-15T02:21:59.596Z,-0.35
2017-01-15T02:22:40.246Z,-0.41
2017-01-15T02:23:21.821Z,-0.36
2017-01-15T02:24:04.420Z,-0.44
2017-01-15T02:24:45.076Z,-0.38
2017-01-15T02:25:25.730Z,-0.49
2017-01-15T02:26:06.388Z,-0.44
2017-01-15T02:26:46.928Z,-0.5
2017-01-15T02:27:27.636Z,-0.44
2017-01-15T02:28:08.256Z,-0.41
2017-01-15T02:28:48.897Z,-0.44
2017-01-15T02:29:29.574Z,-0.44
2017-01-15T02:30:11.261Z,-0.44
2017-01-15T02:30:51.878Z,-0.43
2017-01-15T02:31:32.535Z,-0.53
2017-01-15T02:32:13.210Z,-0.61
2017-01-15T02:32:53.856Z,-0.59
2017-01-15T02:33:34.522Z,-0.52
2017-01-15T02:34:15.136Z,-0.57
2017-01-15T02:34:55.791Z,-0.5
2017-01-15T02:35:37.368Z,-0.53
2017-01-15T02:36:18.032Z,-0.53
2017-01-15T02:36:58.708Z,-0.61
2017-01-15T02:37:39.332Z,-0.49
2017-01-15T02:38:19.989Z,-0.56
2017-01-15T02:39:00.660Z,-0.65
2017-01-15T02:39:41.294Z,-0.56
2017-01-15T02:40:21.955Z,-0.65
2017-01-15T02:41:02.550Z,-0.68
2017-01-15T02:41:43.148Z,-0.74
2017-01-15T02:42:23.718Z,-0.7
2017-01-15T02:43:04.296Z,-0.74
2017-01-15T02:43:44.895Z,-0.68
2017-01-15T02:44:25.466Z,-0.75
2017-01-15T02:45:06.135Z,-0.71
2017-01-15T02:45:48.760Z,-0.75
2017-01-15T02:46:29.405Z,-0.74
2017-01-15T02:47:10.067Z,-0.75
2017-01-15T02:47:50.723Z,-0.85
2017-01-15T02:48:31.377Z,-0.9
2017-01-15T02:49:12.066Z,-0.83
2017-01-15T02:49:52.675Z,-0.86
2017-01-15T02:50:33.223Z,-0.89
2017-01-15T02:51:13.819Z,-0.86
2017-01-15T02:51:54.471Z,-0.86
2017-01-15T02:52:35.332Z,-1.01
2017-01-15T02:53:16.255Z,-1.01
2017-01-15T02:53:56.874Z,-0.93
2017-01-15T02:54:38.553Z,-1.05
2017-01-15T02:55:19.069Z,-1.02
2017-01-15T02:55:59.699Z,-1.04
2017-01-15T02:56:40.200Z,-0.99
2017-01-15T02:57:20.782Z,-1.02
2017-01-15T02:58:01.353Z,-1.09
2017-01-15T02:58:41.932Z,-1.01
2017-01-15T02:59:22.592Z,-1.05
2017-01-15T03:00:03.228Z,-1.07
2017-01-15T03:00:43.787Z,-1.07
2017-01-15T03:01:24.464Z,-1.14
2017-01-15T03:02:05.045Z,-1.05
2017-01-15T03:02:45.739Z,-1.11
2017-01-15T03:03:26.302Z,-1.08
2017-01-15T03:04:06.901Z,-1.08
2017-01-15T03:04:47.495Z,-1.11
2017-01-15T03:05:28.057Z,-1.11
2017-01-15T03:06:08.702Z,-1.11
2017-01-15T03:06:49.380Z,-1.07
2017-01-15T03:07:30.070Z,-1.07
2017-01-15T03:08:10.761Z,-1.08
2017-01-15T03:08:51.313Z,-1.17
2017-01-15T03:09:33.920Z,-1.02
2017-01-15T03:10:14.529Z,-1.19
2017-01-15T03:10:55.109Z,-1.14
2017-01-15T03:11:35.776Z,-1.14
2017-01-15T03:12:16.419Z,-1.11
2017-01-15T03:12:56.973Z,-1.19
2017-01-15T03:13:37.649Z,-1.05
2017-01-15T03:14:18.276Z,-1.07
2017-01-15T03:14:58.863Z,-1.08
2017-01-15T03:15:39.504Z,-1.01
2017-01-15T03:16:20.128Z,-1.12
2017-01-15T03:17:00.684Z,-1.04
2017-01-15T03:17:41.348Z,-1.04
2017-01-15T03:18:23.935Z,-1.07
2017-01-15T03:19:04.504Z,-0.96
2017-01-15T03:19:45.143Z,-1.07
2017-01-15T03:20:27.739Z,-1.01
2017-01-15T03:21:08.458Z,-1.04
2017-01-15T03:21:49.042Z,-1.05
2017-01-15T03:22:29.694Z,-1.15
2017-01-15T03:23:11.373Z,-1.11
2017-01-15T03:23:52.020Z,-1.04
2017-01-15T03:24:32.621Z,-1.08
2017-01-15T03:25:14.215Z,-1.09
2017-01-15T03:25:54.986Z,-1.12
2017-01-15T03:26:35.485Z,-1.07
2017-01-15T03:27:16.110Z,-1.12
2017-01-15T03:27:56.721Z,-1.04
2017-01-15T03:28:37.312Z,-1.09
2017-01-15T03:29:17.865Z,-1.11
2017-01-15T03:29:58.515Z,-1.07
2017-01-15T03:30:39.121Z,-1.05
2017-01-15T03:31:19.822Z,-1.02
2017-01-15T03:32:00.418Z,-1.09
2017-01-15T03:32:41.045Z,-1.01
2017-01-15T03:33:21.741Z,-1.08
2017-01-15T03:34:02.297Z,-1.08
2017-01-15T03:34:42.946Z,-1.07
2017-01-15T03:35:23.532Z,-1.12
2017-01-15T03:36:04.185Z,-1.07
2017-01-15T03:36:44.841Z,-1.19
2017-01-15T03:37:25.493Z,-1.15
2017-01-15T03:38:06.146Z,-1.11
2017-01-15T03:38:46.796Z,-1.14
2017-01-15T03:39:27.450Z,-1.15
2017-01-15T03:40:08.104Z,-1.11
2017-01-15T03:40:48.688Z,-1.22
2017-01-15T03:41:29.315Z,-1.19
2017-01-15T03:42:09.961Z,-1.09
2017-01-15T03:42:50.621Z,-1.25
2017-01-15T03:43:31.272Z,-1.11
2017-01-15T03:44:12.855Z,-1.23
2017-01-15T03:44:53.505Z,-1.11
2017-01-15T03:45:34.181Z,-1.11
2017-01-15T03:46:14.815Z,-1.12
2017-01-15T03:46:55.415Z,-1.14
2017-01-15T03:47:36.010Z,-1.14
2017-01-15T03:48:16.653Z,-1.04
2017-01-15T03:48:57.306Z,-1.14
2017-01-15T03:49:37.910Z,-1.12
2017-01-15T03:50:18.490Z,-1.15
2017-01-15T03:50:59.096Z,-1.14
2017-01-15T03:51:39.725Z,-1.12
2017-01-15T03:52:20.370Z,-1.17
2017-01-15T03:53:01.053Z,-1.15
2017-01-15T03:53:41.674Z,-1.14
2017-01-15T03:54:22.330Z,-1.19
2017-01-15T03:55:02.894Z,-1.14
2017-01-15T03:55:43.534Z,-1.17
2017-01-15T03:56:24.132Z,-1.17
2017-01-15T03:57:04.734Z,-1.11
2017-01-15T03:57:45.282Z,-1.29
2017-01-15T03:58:25.855Z,-1.19
2017-01-15T03:59:06.437Z,-1.22
2017-01-15T03:59:47.055Z,-1.25
2017-01-15T04:00:27.590Z,-1.22
2017-01-15T04:01:08.270Z,-1.19
2017-01-15T04:01:48.926Z,-1.19
2017-01-15T04:02:29.555Z,-1.25
2017-01-15T04:03:10.152Z,-1.11
2017-01-15T04:03:50.808Z,-1.14
2017-01-15T04:04:31.461Z,-1.23
2017-01-15T04:05:12.132Z,-1.12
2017-01-15T04:05:52.769Z,-1.09
2017-01-15T04:06:33.393Z,-1.23
2017-01-15T04:07:14.058Z,-1.17
2017-01-15T04:07:54.700Z,-1.2
2017-01-15T04:08:35.360Z,-1.2
2017-01-15T04:09:15.985Z,-1.22
2017-01-15T04:09:58.595Z,-1.19
2017-01-15T04:10:39.256Z,-1.2
2017-01-15T04:11:19.960Z,-1.3
2017-01-15T04:12:00.546Z,-1.26
2017-01-15T04:12:41.209Z,-1.23
2017-01-15T04:13:21.834Z,-1.25
2017-01-15T04:14:02.387Z,-1.22
2017-01-15T04:14:43.051Z,-1.3
2017-01-15T04:15:23.692Z,-1.3
2017-01-15T04:16:04.272Z,-1.25
2017-01-15T04:16:44.925Z,-1.27
2017-01-15T04:17:25.522Z,-1.23
2017-01-15T04:18:06.096Z,-1.3
2017-01-15T04:18:46.660Z,-1.2
2017-01-15T04:19:27.315Z,-1.2
2017-01-15T04:20:08.943Z,-1.25
2017-01-15T04:20:49.632Z,-1.22
2017-01-15T04:21:30.289Z,-1.22
2017-01-15T04:22:10.936Z,-1.25
2017-01-15T04:22:51.590Z,-1.23
2017-01-15T04:23:32.243Z,-1.25
2017-01-15T04:24:13.816Z,-1.25
2017-01-15T04:24:54.470Z,-1.19
2017-01-15T04:25:35.133Z,-1.22
2017-01-15T04:26:15.775Z,-1.35
2017-01-15T04:26:56.430Z,-1.27
2017-01-15T04:27:37.102Z,-1.32
2017-01-15T04:28:18.804Z,-1.3
2017-01-15T04:28:59.414Z,-1.3
2017-01-15T04:29:40.068Z,-1.3
2017-01-15T04:30:20.719Z,-1.32
2017-01-15T04:31:01.280Z,-1.38
2017-01-15T04:31:41.950Z,-1.32
2017-01-15T04:32:22.535Z,-1.3
2017-01-15T04:33:04.153Z,-1.32
2017-01-15T04:33:44.718Z,-1.33
2017-01-15T04:34:25.365Z,-1.43
2017-01-15T04:35:05.971Z,-1.3
2017-01-15T04:35:47.584Z,-1.41
2017-01-15T04:36:28.239Z,-1.4
2017-01-15T04:37:08.891Z,-1.43
2017-01-15T04:37:49.545Z,-1.41
2017-01-15T04:38:30.196Z,-1.38
2017-01-15T04:39:10.848Z,-1.41
2017-01-15T04:39:51.502Z,-1.41
2017-01-15T04:40:32.155Z,-1.38
2017-01-15T04:41:12.807Z,-1.35
2017-01-15T04:41:53.462Z,-1.32
2017-01-15T04:42:34.105Z,-1.29
2017-01-15T04:43:14.765Z,-1.29
2017-01-15T04:43:55.414Z,-1.33
2017-01-15T04:44:36.071Z,-1.3
2017-01-15T04:45:16.729Z,-1.26
2017-01-15T04:45:57.370Z,-1.26
2017-01-15T04:46:38.034Z,-1.2
2017-01-15T04:47:18.683Z,-1.27
2017-01-15T04:47:59.257Z,-1.27
2017-01-15T04:48:39.848Z,-1.23
2017-01-15T04:49:20.454Z,-1.27
2017-01-15T04:50:01.103Z,-1.23
2017-01-15T04:50:41.768Z,-1.26
2017-01-15T04:51:22.417Z,-1.23
2017-01-15T04:52:03.071Z,-1.22
2017-01-15T04:52:43.728Z,-1.25
2017-01-15T04:53:24.383Z,-1.25
2017-01-15T04:54:05.028Z,-1.2
2017-01-15T04:54:45.682Z,-1.35
2017-01-15T04:55:26.336Z,-1.22
2017-01-15T04:56:06.983Z,-1.3
2017-01-15T04:56:47.641Z,-1.25
2017-01-15T04:57:28.294Z,-1.26
2017-01-15T04:58:08.947Z,-1.32
2017-01-15T04:58:49.603Z,-1.3
2017-01-15T04:59:30.258Z,-1.27
2017-01-15T05:00:10.909Z,-1.3
2017-01-15T05:00:51.560Z,-1.3
2017-01-15T05:01:32.151Z,-1.41
2017-01-15T05:02:12.725Z,-1.4
2017-01-15T05:02:53.350Z,-1.43
2017-01-15T05:03:34.967Z,-1.38
2017-01-15T05:04:15.531Z,-1.4
2017-01-15T05:04:56.183Z,-1.46
2017-01-15T05:05:36.783Z,-1.43
2017-01-15T05:06:18.399Z,-1.44
2017-01-15T05:06:58.999Z,-1.41
2017-01-15T05:07:39.630Z,-1.44
2017-01-15T05:08:20.216Z,-1.43
2017-01-15T05:09:00.805Z,-1.51
2017-01-15T05:09:41.377Z,-1.4
2017-01-15T05:10:22.027Z,-1.44
2017-01-15T05:11:02.621Z,-1.4
2017-01-15T05:11:43.539Z,-1.47
2017-01-15T05:12:24.206Z,-1.44
2017-01-15T05:13:04.850Z,-1.4
2017-01-15T05:13:45.497Z,-1.4
2017-01-15T05:14:26.157Z,-1.38
2017-01-15T05:15:06.821Z,-1.43
2017-01-15T05:15:47.465Z,-1.37
2017-01-15T05:16:28.047Z,-1.43
2017-01-15T05:17:08.710Z,-1.43
2017-01-15T05:17:49.291Z,-1.4
2017-01-15T05:18:29.963Z,-1.38
2017-01-15T05:19:10.599Z,-1.4
2017-01-15T05:19:51.174Z,-1.38
2017-01-15T05:20:31.845Z,-1.4
2017-01-15T05:21:12.454Z,-1.37
2017-01-15T05:21:53.037Z,-1.4
2017-01-15T05:22:33.675Z,-1.33
2017-01-15T05:23:14.328Z,-1.35
2017-01-15T05:23:54.980Z,-1.44
2017-01-15T05:24:35.631Z,-1.32
2017-01-15T05:25:16.309Z,-1.44
2017-01-15T05:25:56.943Z,-1.4
2017-01-15T05:26:37.609Z,-1.43
2017-01-15T05:27:18.244Z,-1.37
2017-01-15T05:27:58.908Z,-1.35
2017-01-15T05:28:39.555Z,-1.44
2017-01-15T05:29:20.206Z,-1.38
2017-01-15T05:30:00.887Z,-1.38
2017-01-15T05:30:41.461Z,-1.35
2017-01-15T05:31:22.111Z,-1.33
2017-01-15T05:32:02.664Z,-1.35
2017-01-15T05:32:43.264Z,-1.27
2017-01-15T05:33:23.903Z,-1.3
2017-01-15T05:34:04.483Z,-1.32
2017-01-15T05:34:45.152Z,-1.33
2017-01-15T05:35:25.758Z,-1.27
2017-01-15T05:36:06.322Z,-1.33
2017-01-15T05:36:47.919Z,-1.3
2017-01-15T05:37:28.572Z,-1.37
2017-01-15T05:38:09.219Z,-1.27
2017-01-15T05:38:49.877Z,-1.32
2017-01-15T05:39:30.588Z,-1.32
2017-01-15T05:40:11.166Z,-1.27
2017-01-15T05:40:51.831Z,-1.25
2017-01-15T05:41:32.489Z,-1.26
2017-01-15T05:42:13.140Z,-1.23
2017-01-15T05:42:53.791Z,-1.22
2017-01-15T05:43:34.446Z,-1.19
2017-01-15T05:44:15.084Z,-1.2
2017-01-15T05:44:55.682Z,-1.23
2017-01-15T05:45:36.329Z,-1.22
2017-01-15T05:46:16.925Z,-1.23
2017-01-15T05:46:57.484Z,-1.22
2017-01-15T05:47:38.131Z,-1.22
2017-01-15T05:48:18.732Z,-1.23
2017-01-15T05:48:59.431Z,-1.23
2017-01-15T05:49:40.009Z,-1.23
2017-01-15T05:50:20.649Z,-1.22
2017-01-15T05:51:01.251Z,-1.23
2017-01-15T05:51:41.873Z,-1.32
2017-01-15T05:52:22.492Z,-1.33
2017-01-15T05:53:03.171Z,-1.3
2017-01-15T05:53:43.815Z,-1.38
2017-01-15T05:54:24.464Z,-1.29
2017-01-15T05:55:05.114Z,-1.38
2017-01-15T05:55:45.811Z,-1.43
2017-01-15T05:56:26.467Z,-1.41
2017-01-15T05:57:07.058Z,-1.37
2017-01-15T05:57:47.633Z,-1.37
2017-01-15T05:58:29.320Z,-1.41
2017-01-15T05:59:09.943Z,-1.46
2017-01-15T05:59:50.520Z,-1.48
2017-01-15T06:00:31.172Z,-1.46
2017-01-15T06:01:11.752Z,-1.56
2017-01-15T06:01:52.357Z,-1.54
2017-01-15T06:02:33.093Z,-1.61
2017-01-15T06:03:13.662Z,-1.5
2017-01-15T06:03:54.334Z,-1.54
2017-01-15T06:04:34.971Z,-1.48
2017-01-15T06:05:15.623Z,-1.61
2017-01-15T06:05:56.291Z,-1.54
2017-01-15T06:06:37.494Z,-1.48
2017-01-15T06:07:18.075Z,-1.64
2017-01-15T06:07:58.645Z,-1.65
2017-01-15T06:08:39.296Z,-1.65
2017-01-15T06:09:19.930Z,-1.62
2017-01-15T06:10:00.593Z,-1.64
2017-01-15T06:10:41.181Z,-1.66
2017-01-15T06:11:21.823Z,-1.64
2017-01-15T06:12:02.473Z,-1.61
2017-01-15T06:12:43.101Z,-1.64
2017-01-15T06:13:24.697Z,-1.62
2017-01-15T06:14:05.354Z,-1.71
2017-01-15T06:14:46.012Z,-1.62
2017-01-15T06:15:26.672Z,-1.71
2017-01-15T06:16:07.296Z,-1.71
2017-01-15T06:16:47.963Z,-1.69
2017-01-15T06:17:28.621Z,-1.71
2017-01-15T06:18:09.275Z,-1.72
2017-01-15T06:18:49.897Z,-1.68
2017-01-15T06:19:30.562Z,-1.71
2017-01-15T06:20:11.239Z,-1.71
2017-01-15T06:20:51.892Z,-1.71
2017-01-15T06:21:32.467Z,-1.72
2017-01-15T06:22:13.033Z,-1.74
2017-01-15T06:22:53.613Z,-1.68
2017-01-15T06:23:34.271Z,-1.68
2017-01-15T06:24:14.840Z,-1.64
2017-01-15T06:24:55.419Z,-1.68
2017-01-15T06:25:36.067Z,-1.69
2017-01-15T06:26:16.670Z,-1.68
2017-01-15T06:26:57.257Z,-1.77
2017-01-15T06:27:37.905Z,-1.76
2017-01-15T06:28:18.595Z,-1.76
2017-01-15T06:28:59.184Z,-1.71
2017-01-15T06:29:39.784Z,-1.72
2017-01-15T06:30:20.409Z,-1.71
2017-01-15T06:31:02.009Z,-1.72
2017-01-15T06:31:42.575Z,-1.69
2017-01-15T06:32:23.165Z,-1.71
2017-01-15T06:33:03.761Z,-1.71
2017-01-15T06:33:44.480Z,-1.79
2017-01-15T06:34:25.073Z,-1.69
2017-01-15T06:35:05.675Z,-1.65
2017-01-15T06:35:48.337Z,-1.58
2017-01-15T06:36:28.919Z,-1.61
2017-01-15T06:37:09.574Z,-1.58
2017-01-15T06:37:50.234Z,-1.66
2017-01-15T06:38:30.987Z,-1.62
2017-01-15T06:39:11.641Z,-1.65
2017-01-15T06:39:52.256Z,-1.53
2017-01-15T06:40:32.924Z,-1.61
2017-01-15T06:41:13.505Z,-1.53
2017-01-15T06:41:54.163Z,-1.51
2017-01-15T06:42:35.834Z,-1.53
2017-01-15T06:43:16.499Z,-1.54
2017-01-15T06:43:57.144Z,-1.48
2017-01-15T06:44:37.790Z,-1.41
2017-01-15T06:45:18.461Z,-1.5
2017-01-15T06:45:59.102Z,-1.46
2017-01-15T06:46:39.760Z,-1.46
2017-01-15T06:47:20.420Z,-1.43
2017-01-15T06:48:01.063Z,-1.41
2017-01-15T06:48:41.733Z,-1.38
2017-01-15T06:49:22.367Z,-1.43
2017-01-15T06:50:03.026Z,-1.43
2017-01-15T06:50:44.725Z,-1.37
2017-01-15T06:51:25.441Z,-1.38
2017-01-15T06:52:06.003Z,-1.35
2017-01-15T06:52:46.654Z,-1.3
2017-01-15T06:53:27.317Z,-1.35
2017-01-15T06:54:07.967Z,-1.3
2017-01-15T06:54:48.556Z,-1.27
2017-01-15T06:55:29.216Z,-1.26
2017-01-15T06:56:09.807Z,-1.32
2017-01-15T06:56:50.476Z,-1.27
2017-01-15T06:57:31.112Z,-1.2
2017-01-15T06:58:11.701Z,-1.2
2017-01-15T06:58:52.334Z,-1.19
2017-01-15T06:59:32.968Z,-1.12
2017-01-15T07:00:13.589Z,-1.12
2017-01-15T07:00:54.169Z,-1.07
2017-01-15T07:01:34.789Z,-1.09
2017-01-15T07:02:15.423Z,-1.19
2017-01-15T07:02:56.085Z,-1.08
2017-01-15T07:03:36.744Z,-1.01
2017-01-15T07:04:17.380Z,-1.07
2017-01-15T07:04:59.075Z,-0.99
2017-01-15T07:05:39.727Z,-0.99
2017-01-15T07:06:20.416Z,-0.93
2017-01-15T07:07:00.989Z,-0.96
2017-01-15T07:07:41.645Z,-0.93
2017-01-15T07:08:22.218Z,-0.96
2017-01-15T07:09:02.822Z,-0.86
2017-01-15T07:09:43.377Z,-0.93
2017-01-15T07:10:24.042Z,-0.83
2017-01-15T07:11:04.635Z,-0.86
2017-01-15T07:11:45.245Z,-0.83
2017-01-15T07:12:25.904Z,-0.83
2017-01-15T07:13:06.559Z,-0.89
2017-01-15T07:13:47.208Z,-0.75
2017-01-15T07:14:27.869Z,-0.74
2017-01-15T07:15:08.517Z,-0.78
2017-01-15T07:15:49.209Z,-0.75
2017-01-15T07:16:29.844Z,-0.85
2017-01-15T07:17:10.477Z,-0.72
2017-01-15T07:17:52.049Z,-0.75
2017-01-15T07:18:32.703Z,-0.71
2017-01-15T07:19:13.347Z,-0.71
2017-01-15T07:19:54.038Z,-0.74
2017-01-15T07:20:34.663Z,-0.74
2017-01-15T07:21:15.301Z,-0.68
2017-01-15T07:21:55.893Z,-0.71
2017-01-15T07:22:36.561Z,-0.71
2017-01-15T07:23:17.149Z,-0.72
2017-01-15T07:23:57.714Z,-0.75
2017-01-15T07:24:38.377Z,-0.71
2017-01-15T07:25:18.956Z,-0.65
2017-01-15T07:26:00.577Z,-0.72
2017-01-15T07:26:41.234Z,-0.71
2017-01-15T07:27:21.881Z,-0.74
2017-01-15T07:28:02.558Z,-0.68
2017-01-15T07:28:43.189Z,-0.65
2017-01-15T07:29:23.847Z,-0.74
2017-01-15T07:30:04.496Z,-0.68
2017-01-15T07:30:45.148Z,-0.71
2017-01-15T07:31:25.809Z,-0.71
2017-01-15T07:32:06.458Z,-0.72
2017-01-15T07:32:47.107Z,-0.74
2017-01-15T07:33:28.788Z,-0.68
2017-01-15T07:34:09.348Z,-0.67
2017-01-15T07:34:50.004Z,-0.59
2017-01-15T07:35:30.678Z,-0.72
2017-01-15T07:36:11.308Z,-0.64
2017-01-15T07:36:51.938Z,-0.7
2017-01-15T07:37:32.598Z,-0.65
2017-01-15T07:38:13.171Z,-0.65
2017-01-15T07:38:53.826Z,-0.61
2017-01-15T07:39:34.420Z,-0.61
2017-01-15T07:40:15.017Z,-0.62
2017-01-15T07:40:55.576Z,-0.57
2017-01-15T07:41:36.236Z,-0.49
2017-01-15T07:42:16.873Z,-0.5
2017-01-15T07:42:57.437Z,-0.49
2017-01-15T07:43:38.102Z,-0.57
2017-01-15T07:44:18.718Z,-0.56
2017-01-15T07:44:59.296Z,-0.65
2017-01-15T07:45:39.942Z,-0.57
2017-01-15T07:46:20.486Z,-0.68
2017-01-15T07:47:01.061Z,-0.72
2017-01-15T07:47:41.699Z,-0.67
2017-01-15T07:48:22.279Z,-0.71
2017-01-15T07:49:02.878Z,-0.8
2017-01-15T07:49:43.442Z,-0.74
2017-01-15T07:50:24.096Z,-0.78
2017-01-15T07:51:04.700Z,-0.91
2017-01-15T07:51:45.345Z,-0.83
2017-01-15T07:52:25.992Z,-0.89
2017-01-15T07:53:06.646Z,-0.8
2017-01-15T07:53:47.331Z,-0.86
2017-01-15T07:54:27.974Z,-0.93
2017-01-15T07:55:08.605Z,-0.89
2017-01-15T07:55:49.280Z,-0.93
2017-01-15T07:56:29.936Z,-1.01
2017-01-15T07:57:10.624Z,-0.97
2017-01-15T07:57:52.205Z,-0.99
2017-01-15T07:58:32.856Z,-0.96
2017-01-15T07:59:13.526Z,-1.05
2017-01-15T07:59:54.158Z,-1.04
2017-01-15T08:00:34.831Z,-1.08
2017-01-15T08:01:15.463Z,-1.17
2017-01-15T08:01:56.069Z,-1.09
2017-01-15T08:02:36.759Z,-1.05
2017-01-15T08:03:17.312Z,-1.19
2017-01-15T08:03:57.984Z,-1.2
2017-01-15T08:04:38.675Z,-1.12
2017-01-15T08:05:19.276Z,-1.14
2017-01-15T08:06:00.750Z,-1.25
2017-01-15T08:06:41.411Z,-1.15
2017-01-15T08:07:22.003Z,-1.22
2017-01-15T08:08:02.695Z,-1.22
2017-01-15T08:08:43.308Z,-1.26
2017-01-15T08:09:25.999Z,-1.2
2017-01-15T08:10:06.662Z,-1.22
2017-01-15T08:10:48.292Z,-1.2
2017-01-15T08:11:28.851Z,-1.22
2017-01-15T08:12:09.492Z,-1.25
2017-01-15T08:12:50.097Z,-1.25
2017-01-15T08:13:30.694Z,-1.23
2017-01-15T08:14:11.287Z,-1.32
2017-01-15T08:14:51.930Z,-1.26
2017-01-15T08:15:32.603Z,-1.29
2017-01-15T08:16:13.203Z,-1.29
2017-01-15T08:16:53.775Z,-1.27
2017-01-15T08:17:34.363Z,-1.32
2017-01-15T08:18:15.005Z,-1.29
2017-01-15T08:18:55.707Z,-1.27
2017-01-15T08:19:36.271Z,-1.27
2017-01-15T08:20:16.945Z,-1.33
2017-01-15T08:20:57.617Z,-1.3
2017-01-15T08:21:39.234Z,-1.3
2017-01-15T08:22:19.814Z,-1.35
2017-01-15T08:23:00.469Z,-1.3
2017-01-15T08:23:41.067Z,-1.33
2017-01-15T08:24:21.751Z,-1.3
2017-01-15T08:25:02.321Z,-1.3
2017-01-15T08:25:42.983Z,-1.35
2017-01-15T08:26:23.550Z,-1.37
2017-01-15T08:27:04.153Z,-1.3
2017-01-15T08:27:44.733Z,-1.27
2017-01-15T08:28:25.382Z,-1.27
2017-01-15T08:29:05.967Z,-1.23
2017-01-15T08:29:46.671Z,-1.27
2017-01-15T08:30:27.240Z,-1.29
2017-01-15T08:31:07.893Z,-1.25
2017-01-15T08:31:48.581Z,-1.17
2017-01-15T08:32:29.233Z,-1.11
2017-01-15T08:33:09.874Z,-1.15
2017-01-15T08:33:50.617Z,-1.14
2017-01-15T08:34:31.190Z,-1.2
2017-01-15T08:35:11.850Z,-1.07
2017-01-15T08:35:52.496Z,-1.02
2017-01-15T08:36:33.158Z,-0.93
2017-01-15T08:37:13.768Z,-1.01
2017-01-15T08:37:54.407Z,-0.9
2017-01-15T08:38:36.841Z,-0.8
2017-01-15T08:39:17.453Z,-0.9
2017-01-15T08:39:58.136Z,-0.8
2017-01-15T08:40:38.774Z,-0.77
2017-01-15T08:41:19.430Z,-0.78
2017-01-15T08:42:00.057Z,-0.8
2017-01-15T08:42:40.734Z,-0.78
2017-01-15T08:43:21.382Z,-0.7
2017-01-15T08:44:02.064Z,-0.75
2017-01-15T08:44:42.693Z,-0.7
2017-01-15T08:45:23.269Z,-0.7
2017-01-15T08:46:03.907Z,-0.62
2017-01-15T08:46:44.551Z,-0.62
2017-01-15T08:47:25.190Z,-0.64